Time;durP1;ratioP1;P1;durP2;ratioP2;P2;SDS_P1;SDS_P2;PMS_P1;PMS_P2;Temp;Humidity;BMP_temperature;BMP_pressure;BME280_temperature;BME280_humidity;BME280_pressure;Samples;Min_cycle;Max_cycle;Signal;HPM_P1;HPM_P2
2020/12/05 00:01:31;;;;;;;39.23;21.90;;;4.40;90.50;;;;;;5013491;28;20278;-85
2020/12/05 00:04:01;;;;;;;35.17;21.13;;;4.40;90.50;;;;;;5008334;28;20190;-81
2020/12/05 00:06:28;;;;;;;35.63;21.60;;;4.40;90.50;;;;;;5020754;28;20202;-85
2020/12/05 00:08:56;;;;;;;33.33;21.03;;;4.50;90.50;;;;;;5006581;28;20193;-83
2020/12/05 00:11:27;;;;;;;36.97;21.03;;;4.50;90.40;;;;;;5009806;28;20187;-83
2020/12/05 00:13:55;;;;;;;34.10;21.17;;;4.50;90.40;;;;;;5007407;28;20247;-82
2020/12/05 00:16:23;;;;;;;34.47;20.40;;;4.60;90.40;;;;;;4992208;28;20206;-82
2020/12/05 00:18:54;;;;;;;31.93;20.17;;;4.60;90.40;;;;;;4989846;28;20285;-83
2020/12/05 00:21:23;;;;;;;33.23;19.97;;;4.60;90.40;;;;;;4987288;28;20251;-85
2020/12/05 00:23:55;;;;;;;32.60;20.30;;;4.60;90.30;;;;;;4987553;28;20208;-82
2020/12/05 00:26:22;;;;;;;35.90;20.60;;;4.70;90.30;;;;;;4989211;28;20198;-83
2020/12/05 00:28:50;;;;;;;31.73;19.77;;;4.70;90.30;;;;;;4988302;28;20212;-82
2020/12/05 00:31:20;;;;;;;30.63;18.73;;;4.80;90.20;;;;;;4990221;28;20604;-82
2020/12/05 00:33:50;;;;;;;30.07;19.03;;;4.80;90.10;;;;;;4986445;28;20268;-82
2020/12/05 00:36:18;;;;;;;30.73;19.57;;;4.90;90.10;;;;;;4986682;28;20261;-81
2020/12/05 00:38:47;;;;;;;30.27;17.80;;;4.90;90.10;;;;;;4988242;28;20203;-84
2020/12/05 00:41:18;;;;;;;28.80;19.33;;;4.90;90.00;;;;;;4985713;28;20700;-86
2020/12/05 00:43:46;;;;;;;31.93;18.87;;;4.80;90.00;;;;;;4988549;28;20301;-83
2020/12/05 00:46:13;;;;;;;32.87;20.17;;;4.80;90.00;;;;;;4990272;28;20234;-83
2020/12/05 00:48:41;;;;;;;28.77;18.17;;;4.80;90.10;;;;;;4986358;28;20642;-85
2020/12/05 00:51:11;;;;;;;29.43;18.83;;;4.80;90.10;;;;;;4989589;28;20202;-83
2020/12/05 00:53:40;;;;;;;28.43;18.50;;;4.80;90.10;;;;;;4988441;28;20206;-82
2020/12/05 00:56:09;;;;;;;27.73;18.47;;;4.90;90.00;;;;;;4988207;28;20195;-83
2020/12/05 00:58:38;;;;;;;30.37;17.87;;;4.90;90.00;;;;;;5014220;28;20224;-84
2020/12/05 01:01:06;;;;;;;28.53;17.13;;;4.90;90.00;;;;;;5010136;28;20338;-80
2020/12/05 01:03:35;;;;;;;25.67;18.30;;;4.90;90.00;;;;;;5010140;28;20217;-85
2020/12/05 01:06:03;;;;;;;29.23;18.53;;;4.90;90.00;;;;;;4994294;28;20203;-82
2020/12/05 01:08:30;;;;;;;26.17;17.43;;;4.80;89.90;;;;;;4991333;28;20221;-84
2020/12/05 01:10:58;;;;;;;31.13;18.67;;;4.90;89.80;;;;;;4990596;28;20209;-82
2020/12/05 01:13:28;;;;;;;28.83;18.60;;;4.90;90.00;;;;;;4985752;28;20476;-84
2020/12/05 01:15:57;;;;;;;26.37;16.60;;;4.90;90.00;;;;;;4990421;28;20205;-80
2020/12/05 01:18:24;;;;;;;27.70;18.07;;;4.90;90.00;;;;;;4994484;28;20641;-81
2020/12/05 01:20:52;;;;;;;27.77;17.37;;;4.90;90.00;;;;;;5000052;28;20289;-81
2020/12/05 01:23:20;;;;;;;27.43;17.57;;;4.90;90.00;;;;;;4988083;28;20201;-80
2020/12/05 01:25:48;;;;;;;27.20;17.17;;;4.90;90.00;;;;;;4999269;28;20681;-80
2020/12/05 01:28:16;;;;;;;29.60;17.90;;;4.90;90.00;;;;;;4990624;28;20229;-83
2020/12/05 01:30:45;;;;;;;29.43;18.93;;;5.00;90.00;;;;;;5016063;28;20198;-84
2020/12/05 01:33:12;;;;;;;28.20;16.97;;;5.00;89.90;;;;;;5004984;28;20207;-82
2020/12/05 01:35:40;;;;;;;29.70;18.17;;;5.00;89.80;;;;;;5005433;28;20265;-82
2020/12/05 01:38:09;;;;;;;26.67;17.37;;;5.00;89.70;;;;;;4999874;28;20259;-84
2020/12/05 01:40:37;;;;;;;28.80;17.50;;;5.00;89.70;;;;;;5002602;28;20203;-82
2020/12/05 01:43:05;;;;;;;29.57;16.77;;;4.90;89.80;;;;;;4996631;28;20262;-85
2020/12/05 01:45:33;;;;;;;28.10;17.03;;;4.80;90.00;;;;;;4992993;28;20203;-84
2020/12/05 01:48:02;;;;;;;28.30;17.83;;;4.70;90.10;;;;;;4999457;28;20925;-84
2020/12/05 01:50:29;;;;;;;27.13;17.03;;;4.70;90.20;;;;;;4996512;28;20289;-82
2020/12/05 01:53:05;;;;;;;28.07;17.20;;;4.60;90.30;;;;;;4997760;28;20210;-83
2020/12/05 01:55:32;;;;;;;27.73;17.33;;;4.50;90.40;;;;;;4996996;28;20284;-81
2020/12/05 01:58:00;;;;;;;28.33;16.30;;;4.60;90.40;;;;;;4989037;28;20408;-84
2020/12/05 02:00:31;;;;;;;27.70;16.93;;;4.70;90.50;;;;;;5008025;28;20410;-83
2020/12/05 02:03:03;;;;;;;29.07;17.30;;;4.60;90.40;;;;;;5003933;28;20202;-82
2020/12/05 02:05:41;;;;;;;28.47;16.73;;;4.60;90.30;;;;;;5011039;28;20196;-84
2020/12/05 02:08:12;;;;;;;27.03;16.30;;;4.60;90.40;;;;;;4988851;28;20202;-82
2020/12/05 02:10:46;;;;;;;24.97;17.27;;;4.60;90.40;;;;;;4995474;28;20503;-81
2020/12/05 02:13:21;;;;;;;24.87;16.23;;;4.70;90.40;;;;;;4995042;28;20207;-85
2020/12/05 02:15:50;;;;;;;23.80;16.83;;;4.80;90.30;;;;;;4979844;28;20228;-80
2020/12/05 02:18:20;;;;;;;27.43;16.90;;;4.80;90.20;;;;;;4992186;28;20209;-82
2020/12/05 02:20:50;;;;;;;26.53;16.73;;;4.80;90.20;;;;;;5002107;28;20206;-84
2020/12/05 02:23:20;;;;;;;24.87;15.87;;;4.70;90.20;;;;;;5001672;28;20307;-81
2020/12/05 02:25:51;;;;;;;28.70;17.07;;;4.70;90.30;;;;;;5016396;28;20204;-84
2020/12/05 02:28:20;;;;;;;27.20;17.50;;;4.70;90.30;;;;;;4999151;28;20786;-82
2020/12/05 02:30:48;;;;;;;28.13;16.97;;;4.60;90.40;;;;;;5005655;28;20283;-81
2020/12/05 02:33:16;;;;;;;25.03;17.17;;;4.70;90.40;;;;;;5001415;28;20182;-81
2020/12/05 02:35:44;;;;;;;29.00;17.13;;;4.70;90.50;;;;;;5016122;28;20240;-82
2020/12/05 02:38:17;;;;;;;27.43;17.33;;;4.60;90.50;;;;;;5009672;28;20235;-83
2020/12/05 02:40:47;;;;;;;25.73;16.77;;;4.70;90.50;;;;;;5020040;28;20279;-82
2020/12/05 02:43:14;;;;;;;26.93;17.73;;;4.70;90.50;;;;;;5016976;28;20201;-84
2020/12/05 02:45:42;;;;;;;25.00;16.27;;;4.60;90.50;;;;;;5013447;28;20187;-82
2020/12/05 02:48:10;;;;;;;27.63;17.30;;;4.60;90.60;;;;;;5010976;28;20187;-81
2020/12/05 02:50:39;;;;;;;24.27;17.90;;;4.60;90.60;;;;;;5000477;28;20203;-82
2020/12/05 02:53:06;;;;;;;26.37;17.20;;;4.80;90.60;;;;;;4987308;28;20227;-83
2020/12/05 02:55:36;;;;;;;25.53;16.10;;;4.60;90.50;;;;;;4986345;28;20201;-83
2020/12/05 02:58:08;;;;;;;30.70;17.23;;;4.70;90.60;;;;;;4994283;28;20194;-86
2020/12/05 03:00:39;;;;;;;29.27;17.00;;;4.70;90.60;;;;;;4991779;28;20287;-84
2020/12/05 03:03:07;;;;;;;24.77;16.10;;;4.70;90.50;;;;;;5003621;28;20238;-84
2020/12/05 03:05:35;;;;;;;24.37;16.73;;;4.80;90.50;;;;;;4996586;28;20244;-84
2020/12/05 03:08:03;;;;;;;25.90;16.37;;;4.80;90.50;;;;;;4993876;28;20497;-82
2020/12/05 03:10:31;;;;;;;26.37;16.40;;;4.80;90.50;;;;;;4989705;28;20665;-82
2020/12/05 03:12:59;;;;;;;25.97;16.00;;;4.80;90.50;;;;;;4990243;28;20198;-84
2020/12/05 03:15:29;;;;;;;26.37;15.87;;;4.80;90.40;;;;;;4979307;28;20583;-84
2020/12/05 03:17:57;;;;;;;23.90;15.93;;;4.90;90.40;;;;;;4984961;28;20298;-83
2020/12/05 03:20:25;;;;;;;26.80;15.00;;;4.90;90.40;;;;;;4994346;28;20207;-82
2020/12/05 03:22:53;;;;;;;23.63;15.83;;;5.00;90.40;;;;;;4998256;28;20235;-82
2020/12/05 03:25:21;;;;;;;25.07;15.53;;;5.00;90.20;;;;;;4985779;28;20873;-82
2020/12/05 03:27:49;;;;;;;24.77;15.90;;;5.10;90.20;;;;;;4995384;28;20208;-81
2020/12/05 03:30:17;;;;;;;24.47;15.20;;;5.10;90.20;;;;;;4991240;28;20213;-81
2020/12/05 03:32:47;;;;;;;22.17;16.50;;;5.00;90.10;;;;;;5008141;28;20198;-80
2020/12/05 03:35:14;;;;;;;24.27;15.20;;;5.10;90.10;;;;;;4993030;28;20624;-85
2020/12/05 03:37:43;;;;;;;23.90;15.63;;;5.10;90.20;;;;;;4987993;28;20732;-81
2020/12/05 03:40:10;;;;;;;23.97;16.60;;;5.00;90.20;;;;;;4986607;28;20206;-81
2020/12/05 03:42:39;;;;;;;25.67;16.90;;;4.90;90.20;;;;;;4988828;28;20221;-83
2020/12/05 03:45:07;;;;;;;22.23;15.47;;;5.10;90.30;;;;;;4992907;28;20214;-84
2020/12/05 03:47:35;;;;;;;20.67;14.53;;;5.10;90.30;;;;;;4988478;28;20219;-85
2020/12/05 03:50:06;;;;;;;24.30;15.97;;;4.80;90.30;;;;;;5008836;28;20205;-82
2020/12/05 03:52:35;;;;;;;22.63;15.40;;;4.90;90.40;;;;;;5005819;28;20198;-84
2020/12/05 03:55:03;;;;;;;24.43;15.17;;;4.90;90.40;;;;;;5006339;28;20206;-85
2020/12/05 03:57:31;;;;;;;24.97;16.10;;;4.90;90.40;;;;;;4986831;28;20206;-83
2020/12/05 03:59:58;;;;;;;24.37;16.10;;;4.90;90.40;;;;;;4990939;28;20464;-81
2020/12/05 04:02:26;;;;;;;24.77;15.80;;;4.90;90.30;;;;;;4991337;28;20268;-82
2020/12/05 04:04:54;;;;;;;24.73;15.73;;;5.00;90.30;;;;;;4991589;28;20212;-86
2020/12/05 04:07:22;;;;;;;27.97;16.07;;;5.00;90.30;;;;;;4985505;28;20206;-81
2020/12/05 04:09:50;;;;;;;26.90;15.43;;;5.10;90.30;;;;;;4988246;28;20550;-82
2020/12/05 04:12:18;;;;;;;23.77;14.73;;;5.00;90.30;;;;;;4997263;28;20226;-83
2020/12/05 04:14:46;;;;;;;21.87;15.60;;;5.10;90.30;;;;;;4988119;28;20322;-82
2020/12/05 04:17:14;;;;;;;25.20;15.43;;;5.10;90.20;;;;;;4986740;28;20533;-85
2020/12/05 04:19:42;;;;;;;23.97;15.53;;;5.30;90.10;;;;;;4993834;28;20258;-81
2020/12/05 04:22:09;;;;;;;22.87;15.30;;;5.30;90.00;;;;;;4997512;28;20248;-80
2020/12/05 04:24:41;;;;;;;21.33;14.37;;;5.30;90.00;;;;;;4979728;28;21082;-81
2020/12/05 04:27:09;;;;;;;23.50;15.50;;;5.40;89.80;;;;;;4993010;28;20204;-81
2020/12/05 04:29:37;;;;;;;23.40;14.63;;;5.40;89.70;;;;;;4988191;28;20211;-81
2020/12/05 04:32:06;;;;;;;24.47;15.70;;;5.40;89.60;;;;;;5003637;28;20272;-81
2020/12/05 04:34:36;;;;;;;24.50;16.30;;;5.40;89.80;;;;;;4984978;28;20226;-85
2020/12/05 04:37:03;;;;;;;26.23;16.70;;;5.40;89.90;;;;;;4989889;28;20210;-81
2020/12/05 04:39:31;;;;;;;23.53;15.77;;;5.30;90.00;;;;;;4985354;28;20784;-82
2020/12/05 04:42:01;;;;;;;25.53;16.37;;;5.30;90.00;;;;;;4993788;28;20230;-82
2020/12/05 04:44:29;;;;;;;23.33;15.17;;;5.30;90.10;;;;;;4988430;28;20322;-82
2020/12/05 04:46:59;;;;;;;25.30;16.87;;;5.20;90.10;;;;;;4993700;28;20211;-82
2020/12/05 04:49:29;;;;;;;26.87;16.53;;;5.30;90.10;;;;;;4981097;28;20363;-84
2020/12/05 04:52:14;;;;;;;24.43;15.37;;;5.30;90.10;;;;;;4986493;28;20214;-82
2020/12/05 04:54:43;;;;;;;23.80;15.03;;;5.20;90.20;;;;;;4993711;28;20278;-83
2020/12/05 04:57:20;;;;;;;23.77;16.00;;;5.20;90.10;;;;;;4983392;28;20381;-83
2020/12/05 04:59:48;;;;;;;24.47;16.00;;;5.10;90.20;;;;;;4992435;28;21042;-83
2020/12/05 05:02:19;;;;;;;26.07;16.73;;;5.20;90.40;;;;;;4985487;28;20236;-82
2020/12/05 05:04:48;;;;;;;24.80;16.33;;;5.10;90.20;;;;;;4994742;28;20210;-83
2020/12/05 05:07:16;;;;;;;25.50;16.67;;;5.20;90.30;;;;;;4995816;28;20218;-81
2020/12/05 05:09:51;;;;;;;25.43;16.50;;;5.20;90.20;;;;;;5003534;28;20207;-80
2020/12/05 05:12:37;;;;;;;27.87;17.13;;;5.10;90.20;;;;;;4989409;28;20661;-81
2020/12/05 05:15:28;;;;;;;27.67;16.53;;;5.30;90.10;;;;;;5002077;28;20221;-84
2020/12/05 05:17:58;;;;;;;27.73;16.83;;;5.30;90.20;;;;;;5018467;28;20396;-81
2020/12/05 05:20:26;;;;;;;29.63;16.67;;;5.20;90.20;;;;;;5008482;28;20211;-83
2020/12/05 05:23:11;;;;;;;24.83;16.13;;;5.20;90.30;;;;;;4996292;28;20231;-83
2020/12/05 05:25:53;;;;;;;27.00;17.17;;;5.20;90.30;;;;;;4994717;28;20213;-83
2020/12/05 05:28:27;;;;;;;29.13;17.33;;;5.10;90.30;;;;;;4984351;28;20227;-82
2020/12/05 05:31:12;;;;;;;30.73;18.37;;;5.20;90.40;;;;;;4990171;28;20202;-83
2020/12/05 05:33:43;;;;;;;25.47;16.40;;;5.10;90.40;;;;;;4987988;28;20234;-81
2020/12/05 05:36:19;;;;;;;28.10;17.50;;;5.10;90.40;;;;;;4993052;28;20208;-83
2020/12/05 05:39:00;;;;;;;29.30;17.57;;;5.10;90.50;;;;;;4984562;28;20662;-80
2020/12/05 05:41:28;;;;;;;28.10;16.73;;;5.10;90.40;;;;;;4998130;28;20217;-82
2020/12/05 05:44:01;;;;;;;24.30;16.17;;;5.10;90.40;;;;;;4983336;28;20325;-84
2020/12/05 05:46:36;;;;;;;26.57;16.37;;;5.00;90.50;;;;;;4995831;28;20274;-83
2020/12/05 05:49:06;;;;;;;29.33;16.83;;;5.10;90.40;;;;;;5003905;28;20356;-82
2020/12/05 05:51:45;;;;;;;27.40;16.93;;;5.20;90.40;;;;;;5004803;28;20214;-84
2020/12/05 05:54:16;;;;;;;26.47;16.90;;;5.20;90.30;;;;;;5008860;28;20191;-81
2020/12/05 05:56:56;;;;;;;28.80;16.37;;;5.20;90.30;;;;;;5016991;28;20186;-84
2020/12/05 05:59:26;;;;;;;28.37;17.63;;;5.20;90.30;;;;;;5009582;28;20273;-81
2020/12/05 06:01:56;;;;;;;29.90;17.37;;;5.20;90.20;;;;;;5018189;28;20530;-82
2020/12/05 06:04:29;;;;;;;23.57;16.00;;;5.20;90.20;;;;;;5009610;28;20482;-81
2020/12/05 06:06:59;;;;;;;27.53;16.67;;;5.10;90.30;;;;;;4992590;28;20213;-83
2020/12/05 06:09:35;;;;;;;29.13;18.03;;;5.10;90.20;;;;;;5008970;28;20238;-82
2020/12/05 06:12:04;;;;;;;29.33;18.23;;;5.00;90.20;;;;;;5008065;28;20464;-81
2020/12/05 06:14:32;;;;;;;27.50;17.97;;;5.10;90.40;;;;;;5002219;28;20202;-81
2020/12/05 06:17:06;;;;;;;27.43;17.80;;;5.10;90.40;;;;;;4990138;28;20218;-86
2020/12/05 06:19:35;;;;;;;27.63;17.37;;;5.00;90.50;;;;;;4994194;28;20685;-81
2020/12/05 06:22:02;;;;;;;31.33;17.43;;;5.00;90.50;;;;;;5005726;28;20259;-82
2020/12/05 06:24:40;;;;;;;27.23;17.33;;;5.00;90.50;;;;;;5006572;28;20199;-83
2020/12/05 06:27:09;;;;;;;27.37;17.57;;;5.00;90.50;;;;;;4994766;28;20197;-80
2020/12/05 06:29:41;;;;;;;27.77;17.17;;;5.10;90.50;;;;;;5008064;28;20204;-83
2020/12/05 06:32:09;;;;;;;26.57;17.20;;;5.10;90.40;;;;;;5014174;28;20528;-81
2020/12/05 06:34:42;;;;;;;28.73;18.00;;;5.20;90.30;;;;;;5007652;28;20199;-81
2020/12/05 06:37:11;;;;;;;29.10;17.70;;;5.20;90.20;;;;;;5002469;28;20225;-81
2020/12/05 06:39:39;;;;;;;27.43;17.23;;;5.30;90.20;;;;;;5015322;28;20470;-83
2020/12/05 06:42:19;;;;;;;30.90;18.43;;;5.30;90.20;;;;;;5009911;28;20223;-83
2020/12/05 06:44:48;;;;;;;29.33;18.30;;;5.20;90.20;;;;;;5010523;28;20202;-83
2020/12/05 06:47:24;;;;;;;32.10;19.20;;;5.30;90.30;;;;;;5022104;28;20238;-81
2020/12/05 06:49:56;;;;;;;28.63;18.73;;;5.30;90.20;;;;;;5020780;28;20214;-81
2020/12/05 06:52:38;;;;;;;26.23;17.67;;;5.30;90.20;;;;;;5017655;28;20244;-82
2020/12/05 06:55:13;;;;;;;29.77;18.53;;;5.30;90.20;;;;;;5006599;28;20442;-83
2020/12/05 06:57:44;;;;;;;30.03;19.13;;;5.20;90.30;;;;;;5006710;28;20417;-84
2020/12/05 07:00:19;;;;;;;31.00;19.53;;;5.20;90.30;;;;;;5019955;28;20207;-82
2020/12/05 07:02:55;;;;;;;31.70;19.73;;;5.20;90.40;;;;;;5013210;28;20238;-83
2020/12/05 07:05:33;;;;;;;32.73;19.83;;;5.20;90.30;;;;;;5008121;28;20203;-82
2020/12/05 07:08:18;;;;;;;34.57;19.53;;;5.30;90.30;;;;;;5016260;28;20264;-83
2020/12/05 07:10:50;;;;;;;31.83;19.13;;;5.40;90.30;;;;;;5013038;28;20215;-82
2020/12/05 07:13:19;;;;;;;31.80;19.47;;;5.30;90.30;;;;;;5008910;28;20208;-82
2020/12/05 07:15:49;;;;;;;31.37;19.27;;;5.30;90.30;;;;;;5007562;28;20206;-84
2020/12/05 07:18:26;;;;;;;28.50;18.17;;;5.50;90.10;;;;;;5007451;28;20194;-84
2020/12/05 07:20:57;;;;;;;31.43;18.63;;;5.50;90.10;;;;;;5007518;28;20271;-82
2020/12/05 07:23:25;;;;;;;28.50;18.47;;;5.50;90.10;;;;;;5011629;28;20219;-83
2020/12/05 07:25:53;;;;;;;29.17;17.73;;;5.60;90.00;;;;;;5009238;28;20572;-83
2020/12/05 07:28:20;;;;;;;28.27;18.03;;;5.70;90.00;;;;;;5007979;28;20222;-81
2020/12/05 07:30:51;;;;;;;29.07;17.33;;;5.80;89.70;;;;;;5014943;28;20188;-83
2020/12/05 07:33:20;;;;;;;28.67;18.00;;;5.90;89.40;;;;;;5008735;28;20202;-84
2020/12/05 07:35:56;;;;;;;32.27;19.13;;;6.00;89.20;;;;;;5021682;28;20210;-82
2020/12/05 07:38:28;;;;;;;27.60;17.40;;;5.90;89.00;;;;;;5007855;28;20180;-80
2020/12/05 07:40:57;;;;;;;31.03;17.93;;;6.10;88.80;;;;;;5017171;28;20263;-82
2020/12/05 07:43:27;;;;;;;29.07;17.90;;;6.20;88.60;;;;;;5019560;28;20216;-82
2020/12/05 07:46:03;;;;;;;32.70;18.87;;;6.30;88.40;;;;;;5023920;28;20212;-83
2020/12/05 07:48:31;;;;;;;30.73;18.00;;;6.30;88.50;;;;;;5013974;28;20247;-83
2020/12/05 07:51:01;;;;;;;27.43;18.00;;;6.30;88.30;;;;;;5011199;28;20192;-84
2020/12/05 07:53:32;;;;;;;29.77;17.63;;;6.30;88.30;;;;;;5013902;28;20195;-85
2020/12/05 07:56:16;;;;;;;28.03;17.43;;;6.40;88.20;;;;;;5009017;28;20196;-84
2020/12/05 07:58:46;;;;;;;25.70;17.80;;;6.40;88.20;;;;;;5022711;28;20470;-84
2020/12/05 08:01:38;;;;;;;25.60;16.67;;;6.40;88.30;;;;;;5005732;28;20196;-83
2020/12/05 08:04:36;;;;;;;27.17;18.13;;;6.40;88.30;;;;;;5023246;28;20206;-85
2020/12/05 08:07:05;;;;;;;27.27;18.13;;;6.50;88.20;;;;;;5008196;28;20216;-84
2020/12/05 08:09:35;;;;;;;28.00;17.07;;;6.50;88.20;;;;;;5025937;28;20184;-83
2020/12/05 08:12:05;;;;;;;30.73;18.07;;;6.60;88.00;;;;;;5039367;23;20230;-82
2020/12/05 08:14:35;;;;;;;28.07;18.10;;;6.70;87.80;;;;;;5033679;28;20187;-84
2020/12/05 08:17:06;;;;;;;29.40;17.63;;;6.70;87.90;;;;;;5039740;28;20210;-83
2020/12/05 08:19:40;;;;;;;29.47;19.80;;;6.70;87.90;;;;;;5036147;28;20196;-84
2020/12/05 08:22:08;;;;;;;28.43;17.80;;;6.80;87.90;;;;;;5033442;28;20287;-82
2020/12/05 08:24:38;;;;;;;30.30;18.23;;;6.80;87.90;;;;;;5039705;28;20198;-84
2020/12/05 08:27:12;;;;;;;32.20;18.70;;;6.90;87.80;;;;;;5091128;23;20206;31
2020/12/05 08:29:40;;;;;;;29.63;18.83;;;6.90;87.70;;;;;;4966169;28;20282;-83
2020/12/05 08:32:16;;;;;;;26.03;17.73;;;6.80;87.60;;;;;;4951092;28;20451;-84
2020/12/05 08:34:43;;;;;;;28.87;17.97;;;7.00;87.60;;;;;;4966636;28;20271;-83
2020/12/05 08:37:19;;;;;;;26.67;17.67;;;7.00;87.60;;;;;;4953823;28;20205;-83
2020/12/05 08:39:48;;;;;;;31.23;19.50;;;7.00;87.60;;;;;;4948322;28;20213;-83
2020/12/05 08:42:16;;;;;;;26.87;17.60;;;7.10;87.60;;;;;;4959932;28;20221;-82
2020/12/05 08:44:44;;;;;;;28.63;17.57;;;7.10;87.40;;;;;;4948027;28;20248;-81
2020/12/05 08:47:13;;;;;;;27.27;16.87;;;7.30;87.40;;;;;;4958704;28;20199;-83
2020/12/05 08:49:42;;;;;;;29.57;18.47;;;7.10;87.30;;;;;;4969569;28;20249;-83
2020/12/05 08:52:12;;;;;;;27.23;18.20;;;7.20;87.20;;;;;;4964274;28;20212;-84
2020/12/05 08:54:48;;;;;;;27.33;18.00;;;7.20;87.10;;;;;;4957512;28;20187;-82
2020/12/05 08:57:16;;;;;;;28.57;16.57;;;7.30;87.00;;;;;;4961177;28;20210;-81
2020/12/05 08:59:44;;;;;;;28.97;17.60;;;7.30;87.00;;;;;;4959384;28;20201;-82
2020/12/05 09:02:14;;;;;;;28.13;16.90;;;7.40;87.00;;;;;;4967808;28;20192;-84
2020/12/05 09:04:44;;;;;;;26.87;16.57;;;7.50;87.00;;;;;;4966599;28;20178;-83
2020/12/05 09:07:14;;;;;;;28.43;16.87;;;7.50;87.00;;;;;;4961178;28;20211;-83
2020/12/05 09:09:42;;;;;;;27.07;17.33;;;7.40;86.90;;;;;;5001366;23;20244;-82
2020/12/05 09:12:12;;;;;;;28.07;17.43;;;7.50;87.00;;;;;;5001348;28;20218;-83
2020/12/05 09:14:41;;;;;;;28.30;17.40;;;7.60;86.90;;;;;;5000890;28;20213;-84
2020/12/05 09:17:23;;;;;;;26.03;17.37;;;7.60;86.90;;;;;;4987241;28;20881;-85
2020/12/05 09:19:51;;;;;;;25.00;16.13;;;7.60;86.80;;;;;;4999752;28;20185;-83
2020/12/05 09:22:29;;;;;;;25.50;17.20;;;7.60;86.90;;;;;;5004001;28;20297;-82
2020/12/05 09:24:58;;;;;;;26.53;16.63;;;7.70;86.80;;;;;;5006206;28;20235;-84
2020/12/05 09:27:35;;;;;;;24.80;16.50;;;7.70;86.70;;;;;;5031647;23;20260;-83
2020/12/05 09:30:10;;;;;;;24.10;16.30;;;7.80;86.60;;;;;;4990772;28;20195;-86
2020/12/05 09:32:41;;;;;;;24.50;16.47;;;7.90;86.60;;;;;;4989583;28;20201;-84
2020/12/05 09:35:10;;;;;;;25.03;16.13;;;7.80;86.70;;;;;;5007387;28;20218;-81
2020/12/05 09:37:38;;;;;;;27.07;16.70;;;7.90;86.60;;;;;;5014821;28;20277;-83
2020/12/05 09:40:08;;;;;;;25.57;16.57;;;7.90;86.50;;;;;;5010850;28;20186;-85
2020/12/05 09:42:37;;;;;;;25.23;16.80;;;8.00;86.50;;;;;;5008825;28;20230;-84
2020/12/05 09:45:04;;;;;;;26.23;16.57;;;8.00;86.50;;;;;;5008066;28;20257;-85
2020/12/05 09:47:34;;;;;;;25.37;16.13;;;8.00;86.40;;;;;;5002697;28;20534;-81
2020/12/05 09:50:04;;;;;;;25.33;16.30;;;8.20;86.40;;;;;;5008247;28;20208;-82
2020/12/05 09:52:32;;;;;;;23.03;16.03;;;8.30;86.20;;;;;;5008799;28;20202;-85
2020/12/05 09:55:00;;;;;;;26.67;16.87;;;8.30;86.20;;;;;;4992105;28;20230;-84
2020/12/05 09:57:29;;;;;;;25.57;16.70;;;8.30;86.10;;;;;;5004316;28;20214;-83
2020/12/05 09:59:57;;;;;;;24.73;16.43;;;8.50;86.00;;;;;;4991104;28;20207;-83
2020/12/05 10:02:24;;;;;;;25.10;16.53;;;8.50;85.90;;;;;;5007937;28;20218;-81
2020/12/05 10:04:53;;;;;;;25.43;17.17;;;8.60;85.90;;;;;;5008253;28;20467;-80
2020/12/05 10:07:22;;;;;;;25.23;16.50;;;8.50;85.90;;;;;;5006723;28;20203;-85
2020/12/05 10:09:52;;;;;;;26.67;16.93;;;8.50;85.90;;;;;;5005462;28;20184;-82
2020/12/05 10:12:20;;;;;;;25.27;16.53;;;8.50;86.00;;;;;;5008334;28;20229;-83
2020/12/05 10:14:48;;;;;;;27.63;16.23;;;8.60;86.10;;;;;;5002545;28;20203;-81
2020/12/05 10:17:17;;;;;;;26.60;15.97;;;8.60;86.00;;;;;;4988663;28;20251;-80
2020/12/05 10:19:45;;;;;;;26.17;17.27;;;8.60;86.00;;;;;;5008982;28;20210;-81
2020/12/05 10:22:22;;;;;;;23.27;15.57;;;8.70;86.00;;;;;;5006321;28;20200;-83
2020/12/05 10:24:51;;;;;;;27.17;16.63;;;8.70;86.00;;;;;;4992123;28;20298;-83
2020/12/05 10:27:20;;;;;;;27.17;17.53;;;8.70;86.00;;;;;;5007777;28;20306;-84
2020/12/05 10:29:48;;;;;;;23.27;16.13;;;8.80;86.00;;;;;;5011672;28;20203;-81
2020/12/05 10:32:17;;;;;;;25.20;15.83;;;8.80;86.10;;;;;;5004352;28;20216;-82
2020/12/05 10:34:45;;;;;;;23.57;16.47;;;8.90;86.00;;;;;;4992025;28;20204;-83
2020/12/05 10:37:14;;;;;;;23.17;16.13;;;8.90;85.90;;;;;;5008093;28;20201;-84
2020/12/05 10:39:45;;;;;;;22.27;15.73;;;9.00;85.90;;;;;;5006363;28;20439;-83
2020/12/05 10:42:13;;;;;;;26.53;16.90;;;9.10;85.80;;;;;;5009652;28;20196;-81
2020/12/05 10:44:41;;;;;;;23.00;15.87;;;9.10;86.00;;;;;;5006073;28;20258;-82
2020/12/05 10:47:09;;;;;;;22.70;15.60;;;9.20;85.70;;;;;;4989364;28;20207;-81
2020/12/05 10:49:36;;;;;;;24.87;15.93;;;9.30;85.80;;;;;;5005159;28;20200;-81
2020/12/05 10:52:04;;;;;;;23.93;15.27;;;9.30;85.70;;;;;;5019999;28;20226;-84
2020/12/05 10:54:34;;;;;;;25.90;15.73;;;9.30;85.60;;;;;;5004786;28;20271;-83
2020/12/05 10:57:03;;;;;;;27.87;15.87;;;9.50;85.50;;;;;;5009368;28;20268;-82
2020/12/05 10:59:30;;;;;;;25.57;16.33;;;9.50;85.60;;;;;;5006979;28;20196;-84
2020/12/05 11:01:58;;;;;;;26.13;16.50;;;9.50;85.50;;;;;;5009796;28;20188;-84
2020/12/05 11:04:26;;;;;;;22.60;15.10;;;9.70;85.50;;;;;;5009269;28;20230;-84
2020/12/05 11:06:55;;;;;;;22.13;14.90;;;9.70;85.30;;;;;;5004415;28;20196;-83
2020/12/05 11:09:24;;;;;;;22.57;14.63;;;9.90;85.20;;;;;;5005663;28;20206;-85
2020/12/05 11:11:53;;;;;;;22.37;15.57;;;10.00;85.00;;;;;;5005884;28;20534;-82
2020/12/05 11:14:21;;;;;;;23.77;15.43;;;10.10;84.90;;;;;;4988543;28;20243;-81
2020/12/05 11:16:50;;;;;;;23.37;14.97;;;10.20;84.70;;;;;;4988288;28;20196;-83
2020/12/05 11:19:18;;;;;;;19.03;14.00;;;10.30;84.50;;;;;;5009298;28;20184;-83
2020/12/05 11:21:45;;;;;;;21.97;15.03;;;10.40;84.50;;;;;;5007144;28;20199;-82
2020/12/05 11:24:14;;;;;;;21.63;14.97;;;10.40;84.40;;;;;;4990603;28;20369;-81
2020/12/05 11:26:41;;;;;;;22.70;15.30;;;10.50;84.50;;;;;;4989423;28;20203;-82
2020/12/05 11:29:09;;;;;;;22.03;14.87;;;10.50;84.40;;;;;;5008864;28;20323;-82
2020/12/05 11:31:40;;;;;;;21.60;14.57;;;10.60;84.40;;;;;;5011177;28;20520;-84
2020/12/05 11:34:09;;;;;;;20.43;14.63;;;10.60;84.40;;;;;;5007050;28;20665;-83
2020/12/05 11:36:37;;;;;;;23.37;16.10;;;10.60;84.40;;;;;;5006570;28;20223;-85
2020/12/05 11:39:05;;;;;;;23.27;14.53;;;10.60;84.40;;;;;;5010837;28;20192;-83
2020/12/05 11:41:33;;;;;;;19.70;13.67;;;10.60;84.40;;;;;;5007998;28;20231;-84
2020/12/05 11:44:03;;;;;;;20.57;13.90;;;10.60;84.40;;;;;;5001505;28;20475;-83
2020/12/05 11:46:31;;;;;;;19.10;14.47;;;10.60;84.50;;;;;;5005373;28;20216;-84
2020/12/05 11:49:00;;;;;;;21.10;13.53;;;10.70;84.30;;;;;;5030930;23;20282;-83
2020/12/05 11:51:30;;;;;;;21.57;14.73;;;10.60;84.20;;;;;;5015219;28;20200;-86
2020/12/05 11:53:58;;;;;;;22.90;14.90;;;10.70;84.20;;;;;;5001378;28;20184;-83
2020/12/05 11:56:26;;;;;;;21.20;13.83;;;10.70;84.30;;;;;;5010001;28;20191;-83
2020/12/05 11:58:57;;;;;;;21.63;14.13;;;10.60;84.40;;;;;;4987905;28;20200;-85
2020/12/05 12:01:24;;;;;;;20.07;13.97;;;10.60;84.50;;;;;;5006466;28;20254;-83
2020/12/05 12:03:53;;;;;;;21.47;14.60;;;10.70;84.50;;;;;;5003910;28;20274;-83
2020/12/05 12:06:25;;;;;;;24.87;14.80;;;10.60;84.40;;;;;;5004407;28;20180;-82
2020/12/05 12:08:53;;;;;;;19.83;14.77;;;10.70;84.40;;;;;;5005345;28;20258;-81
2020/12/05 12:11:21;;;;;;;20.17;15.20;;;10.70;84.50;;;;;;5007472;28;20186;-83
2020/12/05 12:13:49;;;;;;;19.63;14.27;;;10.70;84.50;;;;;;5002843;28;20377;-82
2020/12/05 12:16:17;;;;;;;20.00;14.27;;;10.70;84.40;;;;;;5004329;28;20185;-83
2020/12/05 12:18:45;;;;;;;22.77;14.47;;;10.70;84.50;;;;;;4993839;28;20188;-83
2020/12/05 12:21:13;;;;;;;25.17;14.73;;;10.80;84.70;;;;;;5007361;28;20210;-84
2020/12/05 12:23:42;;;;;;;24.30;15.73;;;10.80;84.60;;;;;;5007096;28;20290;-85
2020/12/05 12:26:10;;;;;;;23.73;15.23;;;10.80;84.50;;;;;;5010874;28;20193;-82
2020/12/05 12:28:44;;;;;;;20.73;15.40;;;10.80;84.50;;;;;;5013957;23;20172;31
2020/12/05 12:31:12;;;;;;;23.17;15.60;;;10.80;84.40;;;;;;4963269;28;20209;-82
2020/12/05 12:33:40;;;;;;;22.50;15.37;;;10.80;84.50;;;;;;4965718;28;20368;-81
2020/12/05 12:36:08;;;;;;;24.97;15.20;;;10.80;84.50;;;;;;4962571;28;20242;-83
2020/12/05 12:38:39;;;;;;;20.90;14.37;;;10.80;84.60;;;;;;4963468;28;20213;-85
2020/12/05 12:41:07;;;;;;;20.07;14.80;;;10.80;84.60;;;;;;4958985;28;20362;-82
2020/12/05 12:43:36;;;;;;;22.27;15.03;;;10.80;84.70;;;;;;4961072;28;20249;-85
2020/12/05 12:46:04;;;;;;;22.97;15.03;;;10.80;84.60;;;;;;4947162;28;20202;-84
2020/12/05 12:48:39;;;;;;;20.97;15.13;;;10.80;84.60;;;;;;4964332;28;20229;-83
2020/12/05 12:51:08;;;;;;;23.43;15.20;;;10.80;84.60;;;;;;5053416;23;20232;-82